Overview Statistics Trail Chart Weather Telemetry Raw packets
 

This is the latest recevied weather packets stored in our database for station/object WP3OF-2. If no packets are shown the sender has not sent any weather packets the latest 10 day(s).

<< 61 62 63 64 65 66 67 >>
Time Temp. Humidity Pressure Rain* Wind** Luminosity Snow
1788147365 20.56° C 99% 1025.2 hPa 0 mm - 0 W/m² -
1788147069 20.56° C 99% 1025.2 hPa 0 mm - 0 W/m² -
1788146759 20.56° C 99% 1024.9 hPa 0 mm - 0 W/m² -
1788146455 20.56° C 99% 1024.9 hPa 0 mm - 0 W/m² -
1788146155 20.56° C 99% 1024.9 hPa 0 mm - 0 W/m² -
1788145853 20.56° C 99% 1024.9 hPa 0 mm - 0 W/m² -
1788145441 20.56° C 99% 1025.2 hPa 0 mm - 0 W/m² -
1788145140 20.56° C 99% 1025.2 hPa 0 mm - 0 W/m² -
1788144834 20.56° C 99% 1025.2 hPa 0 mm - 0 W/m² -
1788144530 20° C 99% 1025.2 hPa 0 mm - 0 W/m² -
1788144229 20.56° C 99% 1025.2 hPa 0 mm - 0 W/m² -
1788143930 20.56° C 99% 1025.2 hPa 0 mm - 0 W/m² -
1788143628 20.56° C 99% 1024.9 hPa 0 mm - 0 W/m² -
1788143323 20.56° C 98% 1024.9 hPa 0 mm - 0 W/m² -
1788143022 20.56° C 96% 1025.2 hPa 0 mm - 0 W/m² -
1788142716 21.11° C 94% 1025.6 hPa 0 mm - 0 W/m² -
1788142411 20.56° C 93% 1025.2 hPa 0 mm - 0 W/m² -
1788142107 20.56° C 95% 1025.2 hPa 0 mm - 0 W/m² -
1788141806 20.56° C 95% 1025.2 hPa 0 mm - 0 W/m² -
1788141503 20.56° C 94% 1025.2 hPa 0 mm - 0 W/m² -
1788141198 20.56° C 94% 1025.2 hPa 0 mm - 0 W/m² -
1788140897 20.56° C 93% 1025.2 hPa 0 mm - 0 W/m² -
1788140592 20.56° C 94% 1024.9 hPa 0 mm - 0 W/m² -
1788140288 20° C 94% 1024.9 hPa 0 mm - 0 W/m² -
1788139988 18.89° C 98% 1024.9 hPa 0 mm - 0 W/m² -

* Rain latest hour (hover to see other rain measurements)
** Current wind speed in m/s (hover to see current wind gust speed)